sensor_id;sensor_type;location;lat;lon;timestamp;temperature;humidity
14737;DHT22;7459;53.590;10.062;2023-06-22T00:02:15;20.80;99.90
14737;DHT22;7459;53.590;10.062;2023-06-22T00:04:41;20.80;99.90
14737;DHT22;7459;53.590;10.062;2023-06-22T00:07:06;20.80;99.90
14737;DHT22;7459;53.590;10.062;2023-06-22T00:09:33;20.70;99.90
14737;DHT22;7459;53.590;10.062;2023-06-22T00:11:58;20.80;99.90
14737;DHT22;7459;53.590;10.062;2023-06-22T00:14:24;20.70;99.90
14737;DHT22;7459;53.590;10.062;2023-06-22T00:16:50;20.70;99.90
14737;DHT22;7459;53.590;10.062;2023-06-22T00:19:20;20.70;99.90
14737;DHT22;7459;53.590;10.062;2023-06-22T00:21:47;20.60;99.90
14737;DHT22;7459;53.590;10.062;2023-06-22T00:24:18;20.60;99.90
14737;DHT22;7459;53.590;10.062;2023-06-22T00:26:44;20.50;99.90
14737;DHT22;7459;53.590;10.062;2023-06-22T00:29:10;20.50;99.90
14737;DHT22;7459;53.590;10.062;2023-06-22T00:31:36;20.50;99.90
14737;DHT22;7459;53.590;10.062;2023-06-22T00:34:02;20.50;99.90
14737;DHT22;7459;53.590;10.062;2023-06-22T00:36:27;20.40;99.90
14737;DHT22;7459;53.590;10.062;2023-06-22T00:38:53;20.40;99.90
14737;DHT22;7459;53.590;10.062;2023-06-22T00:41:19;20.40;99.90
14737;DHT22;7459;53.590;10.062;2023-06-22T00:43:45;20.40;99.90
14737;DHT22;7459;53.590;10.062;2023-06-22T00:46:11;20.50;99.90
14737;DHT22;7459;53.590;10.062;2023-06-22T00:48:38;20.50;99.90
14737;DHT22;7459;53.590;10.062;2023-06-22T00:51:05;20.50;99.90
14737;DHT22;7459;53.590;10.062;2023-06-22T00:53:31;20.40;99.90
14737;DHT22;7459;53.590;10.062;2023-06-22T00:56:00;20.40;99.90
14737;DHT22;7459;53.590;10.062;2023-06-22T00:58:26;20.40;99.90
14737;DHT22;7459;53.590;10.062;2023-06-22T01:00:51;20.40;99.90
14737;DHT22;7459;53.590;10.062;2023-06-22T01:03:17;20.30;99.90
14737;DHT22;7459;53.590;10.062;2023-06-22T01:05:44;20.40;99.90
14737;DHT22;7459;53.590;10.062;2023-06-22T01:08:22;20.30;99.90
14737;DHT22;7459;53.590;10.062;2023-06-22T01:10:58;20.30;99.90
14737;DHT22;7459;53.590;10.062;2023-06-22T01:16:30;20.30;99.90
14737;DHT22;7459;53.590;10.062;2023-06-22T01:22:05;20.40;99.90
14737;DHT22;7459;53.590;10.062;2023-06-22T01:24:55;20.40;99.90
14737;DHT22;7459;53.590;10.062;2023-06-22T01:30:20;20.30;99.90
14737;DHT22;7459;53.590;10.062;2023-06-22T01:32:48;20.20;99.90
14737;DHT22;7459;53.590;10.062;2023-06-22T01:35:14;20.20;99.90
14737;DHT22;7459;53.590;10.062;2023-06-22T01:37:40;20.20;99.90
14737;DHT22;7459;53.590;10.062;2023-06-22T01:40:07;20.20;99.90
14737;DHT22;7459;53.590;10.062;2023-06-22T01:42:34;20.20;99.90
14737;DHT22;7459;53.590;10.062;2023-06-22T01:45:01;20.30;99.90
14737;DHT22;7459;53.590;10.062;2023-06-22T01:47:28;20.30;99.90
14737;DHT22;7459;53.590;10.062;2023-06-22T01:49:54;20.20;99.90
14737;DHT22;7459;53.590;10.062;2023-06-22T01:52:20;20.20;99.90
14737;DHT22;7459;53.590;10.062;2023-06-22T01:54:46;20.20;99.90
14737;DHT22;7459;53.590;10.062;2023-06-22T01:57:13;20.20;99.90
14737;DHT22;7459;53.590;10.062;2023-06-22T01:59:58;20.10;99.90
14737;DHT22;7459;53.590;10.062;2023-06-22T02:02:39;20.10;99.90
14737;DHT22;7459;53.590;10.062;2023-06-22T02:05:09;20.10;99.90
14737;DHT22;7459;53.590;10.062;2023-06-22T02:07:44;20.10;99.90
14737;DHT22;7459;53.590;10.062;2023-06-22T02:10:17;20.20;99.90
14737;DHT22;7459;53.590;10.062;2023-06-22T02:12:46;20.20;99.90
14737;DHT22;7459;53.590;10.062;2023-06-22T02:15:12;20.30;99.90
14737;DHT22;7459;53.590;10.062;2023-06-22T02:17:39;20.30;99.90
14737;DHT22;7459;53.590;10.062;2023-06-22T02:20:13;20.30;99.90
14737;DHT22;7459;53.590;10.062;2023-06-22T02:22:40;20.30;99.90
14737;DHT22;7459;53.590;10.062;2023-06-22T02:25:06;20.30;99.90
14737;DHT22;7459;53.590;10.062;2023-06-22T02:27:31;20.30;99.90
14737;DHT22;7459;53.590;10.062;2023-06-22T02:29:57;20.30;99.90
14737;DHT22;7459;53.590;10.062;2023-06-22T02:32:23;20.20;99.90
14737;DHT22;7459;53.590;10.062;2023-06-22T02:34:49;20.30;99.90
14737;DHT22;7459;53.590;10.062;2023-06-22T02:37:14;20.30;99.90
14737;DHT22;7459;53.590;10.062;2023-06-22T02:39:40;20.20;99.90
14737;DHT22;7459;53.590;10.062;2023-06-22T02:42:06;20.10;99.90
14737;DHT22;7459;53.590;10.062;2023-06-22T02:44:32;20.00;99.90
14737;DHT22;7459;53.590;10.062;2023-06-22T02:46:58;20.00;99.90
14737;DHT22;7459;53.590;10.062;2023-06-22T02:49:23;20.10;99.90
14737;DHT22;7459;53.590;10.062;2023-06-22T02:51:49;19.90;99.90
14737;DHT22;7459;53.590;10.062;2023-06-22T02:54:15;19.90;99.90
14737;DHT22;7459;53.590;10.062;2023-06-22T02:56:42;19.90;99.90
14737;DHT22;7459;53.590;10.062;2023-06-22T02:59:09;19.90;99.90
14737;DHT22;7459;53.590;10.062;2023-06-22T03:01:36;19.90;99.90
14737;DHT22;7459;53.590;10.062;2023-06-22T03:04:06;19.80;99.90
14737;DHT22;7459;53.590;10.062;2023-06-22T03:06:33;19.70;99.90
14737;DHT22;7459;53.590;10.062;2023-06-22T03:09:01;19.60;99.90
14737;DHT22;7459;53.590;10.062;2023-06-22T03:11:29;19.70;99.90
14737;DHT22;7459;53.590;10.062;2023-06-22T03:13:59;19.80;99.90
14737;DHT22;7459;53.590;10.062;2023-06-22T03:16:25;19.70;99.90
14737;DHT22;7459;53.590;10.062;2023-06-22T03:18:51;19.70;99.90
14737;DHT22;7459;53.590;10.062;2023-06-22T03:21:19;19.60;99.90
14737;DHT22;7459;53.590;10.062;2023-06-22T03:23:45;19.50;99.90
14737;DHT22;7459;53.590;10.062;2023-06-22T03:26:11;19.50;99.90
14737;DHT22;7459;53.590;10.062;2023-06-22T03:28:37;19.50;99.90
14737;DHT22;7459;53.590;10.062;2023-06-22T03:31:03;19.60;99.90
14737;DHT22;7459;53.590;10.062;2023-06-22T03:33:31;19.60;99.90
14737;DHT22;7459;53.590;10.062;2023-06-22T03:35:57;19.50;99.90
14737;DHT22;7459;53.590;10.062;2023-06-22T03:38:23;19.60;99.90
14737;DHT22;7459;53.590;10.062;2023-06-22T03:40:49;19.70;99.90
14737;DHT22;7459;53.590;10.062;2023-06-22T03:43:14;19.70;99.90
14737;DHT22;7459;53.590;10.062;2023-06-22T03:45:40;19.60;99.90
14737;DHT22;7459;53.590;10.062;2023-06-22T03:48:06;19.60;99.90
14737;DHT22;7459;53.590;10.062;2023-06-22T03:50:31;19.50;99.90
14737;DHT22;7459;53.590;10.062;2023-06-22T03:52:57;19.50;99.90
14737;DHT22;7459;53.590;10.062;2023-06-22T03:55:23;19.50;99.90
14737;DHT22;7459;53.590;10.062;2023-06-22T03:57:49;19.60;99.90
14737;DHT22;7459;53.590;10.062;2023-06-22T04:00:14;19.60;99.90
14737;DHT22;7459;53.590;10.062;2023-06-22T04:02:43;19.70;99.90
14737;DHT22;7459;53.590;10.062;2023-06-22T04:05:09;19.70;99.90
14737;DHT22;7459;53.590;10.062;2023-06-22T04:07:35;19.70;99.90
14737;DHT22;7459;53.590;10.062;2023-06-22T04:10:03;19.70;99.90
14737;DHT22;7459;53.590;10.062;2023-06-22T04:12:32;19.70;99.90
14737;DHT22;7459;53.590;10.062;2023-06-22T04:14:58;19.80;99.90
14737;DHT22;7459;53.590;10.062;2023-06-22T04:17:23;19.80;99.90
14737;DHT22;7459;53.590;10.062;2023-06-22T04:19:50;19.80;99.90
14737;DHT22;7459;53.590;10.062;2023-06-22T04:22:16;19.80;99.90
14737;DHT22;7459;53.590;10.062;2023-06-22T04:24:42;19.80;99.90
14737;DHT22;7459;53.590;10.062;2023-06-22T04:27:09;19.80;99.90
14737;DHT22;7459;53.590;10.062;2023-06-22T04:29:34;19.80;99.90
14737;DHT22;7459;53.590;10.062;2023-06-22T04:32:00;19.80;99.90
14737;DHT22;7459;53.590;10.062;2023-06-22T04:34:31;19.80;99.90
14737;DHT22;7459;53.590;10.062;2023-06-22T04:36:57;19.80;99.90
14737;DHT22;7459;53.590;10.062;2023-06-22T04:39:23;19.80;99.90
14737;DHT22;7459;53.590;10.062;2023-06-22T04:41:49;19.90;99.90
14737;DHT22;7459;53.590;10.062;2023-06-22T04:44:19;19.90;99.90
14737;DHT22;7459;53.590;10.062;2023-06-22T04:46:52;19.90;99.90
14737;DHT22;7459;53.590;10.062;2023-06-22T04:49:34;19.90;99.90
14737;DHT22;7459;53.590;10.062;2023-06-22T04:52:04;20.00;99.90
14737;DHT22;7459;53.590;10.062;2023-06-22T04:54:34;20.00;99.90
14737;DHT22;7459;53.590;10.062;2023-06-22T04:57:01;20.00;99.90
14737;DHT22;7459;53.590;10.062;2023-06-22T04:59:29;20.00;99.90
14737;DHT22;7459;53.590;10.062;2023-06-22T05:01:59;20.00;99.90
14737;DHT22;7459;53.590;10.062;2023-06-22T05:04:27;20.10;99.90
14737;DHT22;7459;53.590;10.062;2023-06-22T05:06:54;20.10;99.90
14737;DHT22;7459;53.590;10.062;2023-06-22T05:09:20;20.10;99.90
14737;DHT22;7459;53.590;10.062;2023-06-22T05:11:46;20.10;99.90
14737;DHT22;7459;53.590;10.062;2023-06-22T05:14:12;20.20;99.90
14737;DHT22;7459;53.590;10.062;2023-06-22T05:16:39;20.30;99.90
14737;DHT22;7459;53.590;10.062;2023-06-22T05:19:05;20.30;99.90
14737;DHT22;7459;53.590;10.062;2023-06-22T05:21:31;20.30;99.90
14737;DHT22;7459;53.590;10.062;2023-06-22T05:23:58;20.30;99.90
14737;DHT22;7459;53.590;10.062;2023-06-22T05:26:32;20.40;99.90
14737;DHT22;7459;53.590;10.062;2023-06-22T05:29:03;20.40;99.90
14737;DHT22;7459;53.590;10.062;2023-06-22T05:31:29;20.50;99.90
14737;DHT22;7459;53.590;10.062;2023-06-22T05:33:55;20.40;99.90
14737;DHT22;7459;53.590;10.062;2023-06-22T05:36:21;20.50;99.90
14737;DHT22;7459;53.590;10.062;2023-06-22T05:38:51;20.50;99.90
14737;DHT22;7459;53.590;10.062;2023-06-22T05:41:21;20.50;99.90
14737;DHT22;7459;53.590;10.062;2023-06-22T05:43:47;20.50;99.90
14737;DHT22;7459;53.590;10.062;2023-06-22T05:46:13;20.60;99.90
14737;DHT22;7459;53.590;10.062;2023-06-22T05:48:38;20.60;99.90
14737;DHT22;7459;53.590;10.062;2023-06-22T05:51:04;20.60;99.90
14737;DHT22;7459;53.590;10.062;2023-06-22T05:53:30;20.70;99.90
14737;DHT22;7459;53.590;10.062;2023-06-22T05:55:55;20.70;99.90
14737;DHT22;7459;53.590;10.062;2023-06-22T05:58:21;20.70;99.90
14737;DHT22;7459;53.590;10.062;2023-06-22T06:00:47;20.70;99.90
14737;DHT22;7459;53.590;10.062;2023-06-22T06:03:13;20.80;99.90
14737;DHT22;7459;53.590;10.062;2023-06-22T06:05:42;20.80;99.90
14737;DHT22;7459;53.590;10.062;2023-06-22T06:08:08;20.80;99.90
14737;DHT22;7459;53.590;10.062;2023-06-22T06:10:36;20.90;99.90
14737;DHT22;7459;53.590;10.062;2023-06-22T06:13:01;20.90;99.90
14737;DHT22;7459;53.590;10.062;2023-06-22T06:15:28;21.00;99.90
14737;DHT22;7459;53.590;10.062;2023-06-22T06:17:54;21.00;99.90
14737;DHT22;7459;53.590;10.062;2023-06-22T06:20:24;21.00;99.90
14737;DHT22;7459;53.590;10.062;2023-06-22T06:22:50;21.00;99.90
14737;DHT22;7459;53.590;10.062;2023-06-22T06:25:18;21.00;99.90
14737;DHT22;7459;53.590;10.062;2023-06-22T06:27:50;21.10;99.90
14737;DHT22;7459;53.590;10.062;2023-06-22T06:30:17;21.10;99.90
14737;DHT22;7459;53.590;10.062;2023-06-22T06:32:44;21.20;99.90
14737;DHT22;7459;53.590;10.062;2023-06-22T06:35:12;21.20;99.90
14737;DHT22;7459;53.590;10.062;2023-06-22T06:37:41;21.30;99.90
14737;DHT22;7459;53.590;10.062;2023-06-22T06:40:08;21.30;99.90
14737;DHT22;7459;53.590;10.062;2023-06-22T06:42:40;21.30;99.90
14737;DHT22;7459;53.590;10.062;2023-06-22T06:45:11;21.40;99.90
14737;DHT22;7459;53.590;10.062;2023-06-22T06:47:38;21.40;99.90
14737;DHT22;7459;53.590;10.062;2023-06-22T06:50:05;21.40;99.90
14737;DHT22;7459;53.590;10.062;2023-06-22T06:52:31;21.50;99.90
14737;DHT22;7459;53.590;10.062;2023-06-22T06:54:58;21.50;99.90
14737;DHT22;7459;53.590;10.062;2023-06-22T06:57:24;21.50;99.90
14737;DHT22;7459;53.590;10.062;2023-06-22T06:59:56;21.50;99.90
14737;DHT22;7459;53.590;10.062;2023-06-22T07:02:23;21.50;99.90
14737;DHT22;7459;53.590;10.062;2023-06-22T07:04:49;21.50;99.90
14737;DHT22;7459;53.590;10.062;2023-06-22T07:07:15;21.50;99.90
14737;DHT22;7459;53.590;10.062;2023-06-22T07:09:41;21.50;99.90
14737;DHT22;7459;53.590;10.062;2023-06-22T07:12:07;21.50;99.90
14737;DHT22;7459;53.590;10.062;2023-06-22T07:14:33;21.50;99.90
14737;DHT22;7459;53.590;10.062;2023-06-22T07:16:58;21.50;99.90
14737;DHT22;7459;53.590;10.062;2023-06-22T07:19:25;21.60;99.90
14737;DHT22;7459;53.590;10.062;2023-06-22T07:21:55;21.60;99.90
14737;DHT22;7459;53.590;10.062;2023-06-22T07:24:21;21.60;99.90
14737;DHT22;7459;53.590;10.062;2023-06-22T07:26:48;21.70;99.90
14737;DHT22;7459;53.590;10.062;2023-06-22T07:29:18;21.70;99.90
14737;DHT22;7459;53.590;10.062;2023-06-22T07:31:46;21.80;99.90
14737;DHT22;7459;53.590;10.062;2023-06-22T07:34:13;21.80;99.90
14737;DHT22;7459;53.590;10.062;2023-06-22T07:36:39;21.80;99.90
14737;DHT22;7459;53.590;10.062;2023-06-22T07:39:05;21.90;99.90
14737;DHT22;7459;53.590;10.062;2023-06-22T07:41:31;21.90;99.90
14737;DHT22;7459;53.590;10.062;2023-06-22T07:43:58;21.90;99.90
14737;DHT22;7459;53.590;10.062;2023-06-22T07:46:24;22.00;99.90
14737;DHT22;7459;53.590;10.062;2023-06-22T07:48:49;21.90;99.90
14737;DHT22;7459;53.590;10.062;2023-06-22T07:51:15;22.00;99.90
14737;DHT22;7459;53.590;10.062;2023-06-22T07:53:42;22.10;99.90
14737;DHT22;7459;53.590;10.062;2023-06-22T07:56:10;22.10;99.90
14737;DHT22;7459;53.590;10.062;2023-06-22T07:58:36;22.10;99.90
14737;DHT22;7459;53.590;10.062;2023-06-22T08:01:01;22.10;99.90
14737;DHT22;7459;53.590;10.062;2023-06-22T08:03:28;22.20;99.90
14737;DHT22;7459;53.590;10.062;2023-06-22T08:05:54;22.30;99.90
14737;DHT22;7459;53.590;10.062;2023-06-22T08:08:19;22.30;99.90
14737;DHT22;7459;53.590;10.062;2023-06-22T08:10:45;22.40;99.90
14737;DHT22;7459;53.590;10.062;2023-06-22T08:13:11;22.40;99.90
14737;DHT22;7459;53.590;10.062;2023-06-22T08:15:36;22.40;99.90
14737;DHT22;7459;53.590;10.062;2023-06-22T08:18:02;22.40;99.90
14737;DHT22;7459;53.590;10.062;2023-06-22T08:20:28;22.40;99.90
14737;DHT22;7459;53.590;10.062;2023-06-22T08:22:56;22.40;99.90
14737;DHT22;7459;53.590;10.062;2023-06-22T08:25:25;22.50;99.90
14737;DHT22;7459;53.590;10.062;2023-06-22T08:27:51;22.50;99.90
14737;DHT22;7459;53.590;10.062;2023-06-22T08:30:17;22.50;99.90
14737;DHT22;7459;53.590;10.062;2023-06-22T08:32:44;22.50;99.90
14737;DHT22;7459;53.590;10.062;2023-06-22T08:35:09;22.50;99.90
14737;DHT22;7459;53.590;10.062;2023-06-22T08:37:36;22.60;99.90
14737;DHT22;7459;53.590;10.062;2023-06-22T08:40:04;22.60;99.90
14737;DHT22;7459;53.590;10.062;2023-06-22T08:42:31;22.70;99.90
14737;DHT22;7459;53.590;10.062;2023-06-22T08:44:57;22.80;99.90
14737;DHT22;7459;53.590;10.062;2023-06-22T08:47:23;22.80;99.90
14737;DHT22;7459;53.590;10.062;2023-06-22T08:49:49;22.80;99.90
14737;DHT22;7459;53.590;10.062;2023-06-22T08:52:15;22.80;99.90
14737;DHT22;7459;53.590;10.062;2023-06-22T08:54:41;22.90;99.90
14737;DHT22;7459;53.590;10.062;2023-06-22T08:57:06;22.90;99.90
14737;DHT22;7459;53.590;10.062;2023-06-22T08:59:32;23.00;99.90
14737;DHT22;7459;53.590;10.062;2023-06-22T09:01:58;23.10;99.90
14737;DHT22;7459;53.590;10.062;2023-06-22T09:04:24;23.10;99.90
14737;DHT22;7459;53.590;10.062;2023-06-22T09:06:50;23.10;99.90
14737;DHT22;7459;53.590;10.062;2023-06-22T09:09:17;23.10;99.90
14737;DHT22;7459;53.590;10.062;2023-06-22T09:11:43;23.20;99.90
14737;DHT22;7459;53.590;10.062;2023-06-22T09:14:09;23.20;99.90
14737;DHT22;7459;53.590;10.062;2023-06-22T09:16:35;23.20;99.90
14737;DHT22;7459;53.590;10.062;2023-06-22T09:19:01;23.30;99.90
14737;DHT22;7459;53.590;10.062;2023-06-22T09:21:27;23.30;99.90
14737;DHT22;7459;53.590;10.062;2023-06-22T09:23:53;23.30;99.90
14737;DHT22;7459;53.590;10.062;2023-06-22T09:26:19;23.40;99.90
14737;DHT22;7459;53.590;10.062;2023-06-22T09:28:44;23.50;99.90
14737;DHT22;7459;53.590;10.062;2023-06-22T09:31:10;23.50;99.90
14737;DHT22;7459;53.590;10.062;2023-06-22T09:33:37;23.60;99.90
14737;DHT22;7459;53.590;10.062;2023-06-22T09:36:06;23.60;99.90
14737;DHT22;7459;53.590;10.062;2023-06-22T09:38:38;23.60;99.90
14737;DHT22;7459;53.590;10.062;2023-06-22T09:41:04;23.70;99.90
14737;DHT22;7459;53.590;10.062;2023-06-22T09:43:31;23.70;99.90
14737;DHT22;7459;53.590;10.062;2023-06-22T09:45:58;23.70;99.90
14737;DHT22;7459;53.590;10.062;2023-06-22T09:48:23;23.80;99.90
14737;DHT22;7459;53.590;10.062;2023-06-22T09:50:49;23.80;99.90
14737;DHT22;7459;53.590;10.062;2023-06-22T09:53:15;23.90;99.90
14737;DHT22;7459;53.590;10.062;2023-06-22T09:55:40;23.90;99.90
14737;DHT22;7459;53.590;10.062;2023-06-22T09:58:06;24.00;99.90
14737;DHT22;7459;53.590;10.062;2023-06-22T10:00:32;24.00;99.90
14737;DHT22;7459;53.590;10.062;2023-06-22T10:02:57;24.00;99.90
14737;DHT22;7459;53.590;10.062;2023-06-22T10:05:23;24.00;99.90
14737;DHT22;7459;53.590;10.062;2023-06-22T10:07:50;24.00;99.90
14737;DHT22;7459;53.590;10.062;2023-06-22T10:10:16;24.10;99.90
14737;DHT22;7459;53.590;10.062;2023-06-22T10:12:48;24.20;99.90
14737;DHT22;7459;53.590;10.062;2023-06-22T10:15:20;24.20;99.90
14737;DHT22;7459;53.590;10.062;2023-06-22T10:17:47;24.20;99.90
14737;DHT22;7459;53.590;10.062;2023-06-22T10:20:13;24.30;99.90
14737;DHT22;7459;53.590;10.062;2023-06-22T10:22:44;24.30;99.90
14737;DHT22;7459;53.590;10.062;2023-06-22T10:25:12;24.30;99.90
14737;DHT22;7459;53.590;10.062;2023-06-22T10:27:38;24.40;99.90
14737;DHT22;7459;53.590;10.062;2023-06-22T10:30:11;24.40;99.90
14737;DHT22;7459;53.590;10.062;2023-06-22T10:32:38;24.40;99.90
14737;DHT22;7459;53.590;10.062;2023-06-22T10:35:05;24.50;99.90
14737;DHT22;7459;53.590;10.062;2023-06-22T10:37:31;24.50;99.90
14737;DHT22;7459;53.590;10.062;2023-06-22T10:39:57;24.50;99.90
14737;DHT22;7459;53.590;10.062;2023-06-22T10:42:23;24.50;99.90
14737;DHT22;7459;53.590;10.062;2023-06-22T10:44:48;24.50;99.90
14737;DHT22;7459;53.590;10.062;2023-06-22T10:47:14;24.50;99.90
14737;DHT22;7459;53.590;10.062;2023-06-22T10:49:40;24.60;99.90
14737;DHT22;7459;53.590;10.062;2023-06-22T10:52:07;24.60;99.90
14737;DHT22;7459;53.590;10.062;2023-06-22T10:54:34;24.70;99.90
14737;DHT22;7459;53.590;10.062;2023-06-22T10:57:01;24.80;99.90
14737;DHT22;7459;53.590;10.062;2023-06-22T10:59:27;24.80;99.90
14737;DHT22;7459;53.590;10.062;2023-06-22T11:01:54;24.80;99.90
14737;DHT22;7459;53.590;10.062;2023-06-22T11:04:20;24.90;99.90
14737;DHT22;7459;53.590;10.062;2023-06-22T11:06:47;24.90;99.90
14737;DHT22;7459;53.590;10.062;2023-06-22T11:09:13;25.00;99.90
14737;DHT22;7459;53.590;10.062;2023-06-22T11:11:44;25.00;99.90
14737;DHT22;7459;53.590;10.062;2023-06-22T11:14:10;25.00;99.90
14737;DHT22;7459;53.590;10.062;2023-06-22T11:16:35;25.10;99.90
14737;DHT22;7459;53.590;10.062;2023-06-22T11:19:01;25.10;99.90
14737;DHT22;7459;53.590;10.062;2023-06-22T11:21:28;25.20;99.90
14737;DHT22;7459;53.590;10.062;2023-06-22T11:23:54;25.30;99.90
14737;DHT22;7459;53.590;10.062;2023-06-22T11:26:19;25.30;99.90
14737;DHT22;7459;53.590;10.062;2023-06-22T11:28:46;25.40;99.90
14737;DHT22;7459;53.590;10.062;2023-06-22T11:31:12;25.50;99.90
14737;DHT22;7459;53.590;10.062;2023-06-22T11:33:38;25.50;99.90
14737;DHT22;7459;53.590;10.062;2023-06-22T11:36:04;25.60;99.90
14737;DHT22;7459;53.590;10.062;2023-06-22T11:38:30;25.70;99.90
14737;DHT22;7459;53.590;10.062;2023-06-22T11:40:58;25.70;99.90
14737;DHT22;7459;53.590;10.062;2023-06-22T11:43:24;25.70;99.90
14737;DHT22;7459;53.590;10.062;2023-06-22T11:45:50;25.70;99.90
14737;DHT22;7459;53.590;10.062;2023-06-22T11:48:16;25.80;99.90
14737;DHT22;7459;53.590;10.062;2023-06-22T11:50:41;25.80;99.90
14737;DHT22;7459;53.590;10.062;2023-06-22T11:53:07;25.80;99.90
14737;DHT22;7459;53.590;10.062;2023-06-22T11:55:33;26.00;99.90
14737;DHT22;7459;53.590;10.062;2023-06-22T11:57:58;26.00;99.90
14737;DHT22;7459;53.590;10.062;2023-06-22T12:00:26;26.00;99.90
14737;DHT22;7459;53.590;10.062;2023-06-22T12:02:55;26.10;99.90
14737;DHT22;7459;53.590;10.062;2023-06-22T12:05:22;26.10;99.90
14737;DHT22;7459;53.590;10.062;2023-06-22T12:07:49;26.10;99.90
14737;DHT22;7459;53.590;10.062;2023-06-22T12:10:15;26.10;99.90
14737;DHT22;7459;53.590;10.062;2023-06-22T12:12:41;26.10;99.90
14737;DHT22;7459;53.590;10.062;2023-06-22T12:15:08;26.10;99.90
14737;DHT22;7459;53.590;10.062;2023-06-22T12:17:34;26.20;99.90
14737;DHT22;7459;53.590;10.062;2023-06-22T12:20:00;26.20;99.90
14737;DHT22;7459;53.590;10.062;2023-06-22T12:22:27;26.10;99.90
14737;DHT22;7459;53.590;10.062;2023-06-22T12:24:52;26.10;99.90
14737;DHT22;7459;53.590;10.062;2023-06-22T12:27:18;26.10;99.90
14737;DHT22;7459;53.590;10.062;2023-06-22T12:29:47;26.00;99.90
14737;DHT22;7459;53.590;10.062;2023-06-22T12:32:13;26.00;99.90
14737;DHT22;7459;53.590;10.062;2023-06-22T12:34:41;26.10;99.90
14737;DHT22;7459;53.590;10.062;2023-06-22T12:37:07;26.00;99.90
14737;DHT22;7459;53.590;10.062;2023-06-22T12:39:33;26.00;99.90
14737;DHT22;7459;53.590;10.062;2023-06-22T12:41:59;26.00;99.90
14737;DHT22;7459;53.590;10.062;2023-06-22T12:44:24;26.10;99.90
14737;DHT22;7459;53.590;10.062;2023-06-22T12:46:50;26.10;99.90
14737;DHT22;7459;53.590;10.062;2023-06-22T12:49:16;26.10;99.90
14737;DHT22;7459;53.590;10.062;2023-06-22T12:51:42;26.10;99.90
14737;DHT22;7459;53.590;10.062;2023-06-22T12:54:09;26.20;99.90
14737;DHT22;7459;53.590;10.062;2023-06-22T12:56:36;26.20;99.90
14737;DHT22;7459;53.590;10.062;2023-06-22T12:59:03;26.20;99.90
14737;DHT22;7459;53.590;10.062;2023-06-22T13:01:29;26.20;99.90
14737;DHT22;7459;53.590;10.062;2023-06-22T13:03:56;26.20;99.90
14737;DHT22;7459;53.590;10.062;2023-06-22T13:06:22;26.20;99.90
14737;DHT22;7459;53.590;10.062;2023-06-22T13:08:47;26.30;99.90
14737;DHT22;7459;53.590;10.062;2023-06-22T13:11:13;26.30;99.90
14737;DHT22;7459;53.590;10.062;2023-06-22T13:13:40;26.30;99.90
14737;DHT22;7459;53.590;10.062;2023-06-22T13:16:06;26.40;99.90
14737;DHT22;7459;53.590;10.062;2023-06-22T13:18:32;26.40;99.90
14737;DHT22;7459;53.590;10.062;2023-06-22T13:20:59;26.40;99.90
14737;DHT22;7459;53.590;10.062;2023-06-22T13:23:25;26.50;99.90
14737;DHT22;7459;53.590;10.062;2023-06-22T13:25:51;26.60;99.90
14737;DHT22;7459;53.590;10.062;2023-06-22T13:28:17;26.50;99.90
14737;DHT22;7459;53.590;10.062;2023-06-22T13:30:42;26.50;99.90
14737;DHT22;7459;53.590;10.062;2023-06-22T13:33:10;26.60;99.90
14737;DHT22;7459;53.590;10.062;2023-06-22T13:35:36;26.50;99.90
14737;DHT22;7459;53.590;10.062;2023-06-22T13:38:03;26.40;99.90
14737;DHT22;7459;53.590;10.062;2023-06-22T13:40:29;26.40;99.90
14737;DHT22;7459;53.590;10.062;2023-06-22T13:42:55;26.30;99.90
14737;DHT22;7459;53.590;10.062;2023-06-22T13:45:21;26.20;99.90
14737;DHT22;7459;53.590;10.062;2023-06-22T13:47:47;26.20;99.90
14737;DHT22;7459;53.590;10.062;2023-06-22T13:50:13;26.10;99.90
14737;DHT22;7459;53.590;10.062;2023-06-22T13:52:39;26.10;99.90
14737;DHT22;7459;53.590;10.062;2023-06-22T13:55:05;26.10;99.90
14737;DHT22;7459;53.590;10.062;2023-06-22T13:57:33;26.00;99.90
14737;DHT22;7459;53.590;10.062;2023-06-22T13:59:59;26.00;99.90
14737;DHT22;7459;53.590;10.062;2023-06-22T14:02:28;26.00;99.90
14737;DHT22;7459;53.590;10.062;2023-06-22T14:04:54;26.10;99.90
14737;DHT22;7459;53.590;10.062;2023-06-22T14:07:19;26.10;99.90
14737;DHT22;7459;53.590;10.062;2023-06-22T14:09:46;26.10;99.90
14737;DHT22;7459;53.590;10.062;2023-06-22T14:12:12;26.20;99.90
14737;DHT22;7459;53.590;10.062;2023-06-22T14:14:38;26.20;99.90
14737;DHT22;7459;53.590;10.062;2023-06-22T14:17:04;26.20;99.90
14737;DHT22;7459;53.590;10.062;2023-06-22T14:19:30;26.10;99.90
14737;DHT22;7459;53.590;10.062;2023-06-22T14:21:56;26.20;99.90
14737;DHT22;7459;53.590;10.062;2023-06-22T14:24:24;26.20;99.90
14737;DHT22;7459;53.590;10.062;2023-06-22T14:26:50;26.10;99.90
14737;DHT22;7459;53.590;10.062;2023-06-22T14:29:16;26.10;99.90
14737;DHT22;7459;53.590;10.062;2023-06-22T14:31:45;26.10;99.90
14737;DHT22;7459;53.590;10.062;2023-06-22T14:34:11;26.00;99.90
14737;DHT22;7459;53.590;10.062;2023-06-22T14:36:37;26.00;99.90
14737;DHT22;7459;53.590;10.062;2023-06-22T14:39:02;26.00;99.90
14737;DHT22;7459;53.590;10.062;2023-06-22T14:41:32;26.00;99.90
14737;DHT22;7459;53.590;10.062;2023-06-22T14:43:58;26.00;99.90
14737;DHT22;7459;53.590;10.062;2023-06-22T14:46:24;25.90;99.90
14737;DHT22;7459;53.590;10.062;2023-06-22T14:48:49;25.90;99.90
14737;DHT22;7459;53.590;10.062;2023-06-22T14:51:16;25.90;99.90
14737;DHT22;7459;53.590;10.062;2023-06-22T14:53:43;25.90;99.90
14737;DHT22;7459;53.590;10.062;2023-06-22T14:56:09;25.90;99.90
14737;DHT22;7459;53.590;10.062;2023-06-22T14:58:35;25.80;99.90
14737;DHT22;7459;53.590;10.062;2023-06-22T15:01:02;25.80;99.90
14737;DHT22;7459;53.590;10.062;2023-06-22T15:03:29;25.80;99.90
14737;DHT22;7459;53.590;10.062;2023-06-22T15:05:57;25.70;99.90
14737;DHT22;7459;53.590;10.062;2023-06-22T15:08:24;25.70;99.90
14737;DHT22;7459;53.590;10.062;2023-06-22T15:10:51;25.70;99.90
14737;DHT22;7459;53.590;10.062;2023-06-22T15:13:17;25.60;99.90
14737;DHT22;7459;53.590;10.062;2023-06-22T15:15:45;25.60;99.90
14737;DHT22;7459;53.590;10.062;2023-06-22T15:18:13;25.60;99.90
14737;DHT22;7459;53.590;10.062;2023-06-22T15:20:39;25.60;99.90
14737;DHT22;7459;53.590;10.062;2023-06-22T15:23:06;25.60;99.90
14737;DHT22;7459;53.590;10.062;2023-06-22T15:25:32;25.60;99.90
14737;DHT22;7459;53.590;10.062;2023-06-22T15:27:58;25.60;99.90
14737;DHT22;7459;53.590;10.062;2023-06-22T15:30:23;25.60;99.90
14737;DHT22;7459;53.590;10.062;2023-06-22T15:32:49;25.50;99.90
14737;DHT22;7459;53.590;10.062;2023-06-22T15:35:15;25.50;99.90
14737;DHT22;7459;53.590;10.062;2023-06-22T15:37:44;25.50;99.90